Time;durP1;ratioP1;P1;durP2;ratioP2;P2;SDS_P1;SDS_P2;PMS_P1;PMS_P2;Temp;Humidity;BMP_temperature;BMP_pressure;BME280_temperature;BME280_humidity;BME280_pressure;Samples;Min_cycle;Max_cycle;Signal;HPM_P1;HPM_P2
2022/11/18 00:00:31;;;;;;;44.50;14.75;;;;;;;;;;5021470;28;20060;-40
2022/11/18 00:02:57;;;;;;;44.25;16.52;;;;;;;;;;5022555;28;20046;-40
2022/11/18 00:05:24;;;;;;;48.08;16.55;;;;;;;;;;5019875;28;20454;-41
2022/11/18 00:07:50;;;;;;;47.47;15.88;;;;;;;;;;5017946;28;20041;-40
2022/11/18 00:10:17;;;;;;;59.05;17.65;;;;;;;;;;5020815;28;20144;-40
2022/11/18 00:15:28;;;;;;;61.67;18.52;;;;;;;;;;5016998;28;20045;-40
2022/11/18 00:17:57;;;;;;;50.30;15.10;;;;;;;;;;5020986;28;20048;-40
2022/11/18 00:20:23;;;;;;;38.40;14.05;;;;;;;;;;5019010;28;20056;-40
2022/11/18 00:22:50;;;;;;;41.05;15.43;;;;;;;;;;5012544;28;20121;-39
2022/11/18 00:25:16;;;;;;;67.07;17.98;;;;;;;;;;5020020;28;20045;-40
2022/11/18 00:27:43;;;;;;;54.85;16.98;;;;;;;;;;5020450;28;20510;-40
2022/11/18 00:30:09;;;;;;;35.45;13.95;;;;;;;;;;5023882;28;20038;-41
2022/11/18 00:32:36;;;;;;;49.72;16.23;;;;;;;;;;5018399;28;20054;-40
2022/11/18 00:35:02;;;;;;;40.17;15.57;;;;;;;;;;5022171;28;20049;-40
2022/11/18 00:37:29;;;;;;;41.38;15.15;;;;;;;;;;5016027;28;20074;-41
2022/11/18 00:39:55;;;;;;;49.75;15.52;;;;;;;;;;5021029;28;20030;-41
2022/11/18 00:45:07;;;;;;;49.22;14.68;;;;;;;;;;5022821;28;20054;-40
2022/11/18 00:47:34;;;;;;;46.67;16.92;;;;;;;;;;5016525;28;20046;-40
2022/11/18 00:50:00;;;;;;;40.05;15.00;;;;;;;;;;5021179;28;20041;-42
2022/11/18 00:52:27;;;;;;;54.83;16.23;;;;;;;;;;5019011;28;20037;-41
2022/11/18 00:54:53;;;;;;;54.45;17.90;;;;;;;;;;5020218;28;20072;-40
2022/11/18 00:57:20;;;;;;;50.88;17.35;;;;;;;;;;5021572;28;20049;-40
2022/11/18 00:59:46;;;;;;;55.42;17.83;;;;;;;;;;5019261;28;20512;-40
2022/11/18 01:02:13;;;;;;;44.17;17.10;;;;;;;;;;5020653;28;20688;-40
2022/11/18 01:04:39;;;;;;;49.83;19.02;;;;;;;;;;5020532;28;20037;-41
2022/11/18 01:07:05;;;;;;;39.60;16.48;;;;;;;;;;5019666;28;20095;-40
2022/11/18 01:09:32;;;;;;;76.97;20.92;;;;;;;;;;5020438;28;20537;-40
2022/11/18 01:14:44;;;;;;;60.90;20.15;;;;;;;;;;5020525;28;20044;-40
2022/11/18 01:17:10;;;;;;;44.60;17.65;;;;;;;;;;5015895;28;20045;-40
2022/11/18 01:19:37;;;;;;;61.58;19.50;;;;;;;;;;5017935;28;20541;-40
2022/11/18 01:22:03;;;;;;;64.63;18.42;;;;;;;;;;5018069;28;20046;-39
2022/11/18 01:24:31;;;;;;;42.92;15.98;;;;;;;;;;5020839;28;20042;-40
2022/11/18 01:26:57;;;;;;;37.25;15.70;;;;;;;;;;5020247;28;20045;-41
2022/11/18 01:29:24;;;;;;;49.92;16.63;;;;;;;;;;5018314;28;20053;-40
2022/11/18 01:31:51;;;;;;;55.25;17.38;;;;;;;;;;5012229;28;20042;-40
2022/11/18 01:34:37;;;;;;;57.20;16.88;;;;;;;;;;5015972;28;20037;-40
2022/11/18 01:37:03;;;;;;;40.83;16.63;;;;;;;;;;5019826;28;20049;-40
2022/11/18 01:39:30;;;;;;;55.45;17.85;;;;;;;;;;5020982;28;20049;-40
2022/11/18 01:41:56;;;;;;;55.22;17.48;;;;;;;;;;5016753;28;20099;-40
2022/11/18 01:44:42;;;;;;;45.38;16.80;;;;;;;;;;5018739;28;20053;-40
2022/11/18 01:47:08;;;;;;;57.55;18.80;;;;;;;;;;5014681;28;20926;-40
2022/11/18 01:49:35;;;;;;;70.97;19.10;;;;;;;;;;5016122;28;20045;-40
2022/11/18 01:52:01;;;;;;;46.58;16.13;;;;;;;;;;5018931;28;20050;-39
2022/11/18 01:54:39;;;;;;;44.20;14.30;;;;;;;;;;5020770;28;20077;-40
2022/11/18 01:57:09;;;;;;;35.22;14.20;;;;;;;;;;5020091;28;20121;-40
2022/11/18 01:59:36;;;;;;;62.92;16.23;;;;;;;;;;5015502;28;20076;-40
2022/11/18 02:02:05;;;;;;;57.40;16.52;;;;;;;;;;5018522;28;20046;-40
2022/11/18 02:04:32;;;;;;;31.65;13.65;;;;;;;;;;5016158;28;20042;-40
2022/11/18 02:06:58;;;;;;;42.67;15.60;;;;;;;;;;5017687;28;20049;-40
2022/11/18 02:09:25;;;;;;;57.22;16.20;;;;;;;;;;5013899;28;20042;-40
2022/11/18 02:11:55;;;;;;;53.78;15.55;;;;;;;;;;5016702;28;20400;-40
2022/11/18 02:14:24;;;;;;;52.40;15.63;;;;;;;;;;5019828;28;20033;-40
2022/11/18 02:17:03;;;;;;;54.95;15.85;;;;;;;;;;5017367;28;20041;-40
2022/11/18 02:19:35;;;;;;;44.85;14.95;;;;;;;;;;5013322;28;20041;-45
2022/11/18 02:22:20;;;;;;;56.25;15.35;;;;;;;;;;5016648;28;20045;-40
2022/11/18 02:24:47;;;;;;;45.80;15.35;;;;;;;;;;5016985;28;20045;-41
2022/11/18 02:27:28;;;;;;;55.83;15.75;;;;;;;;;;5017731;28;20038;-40
2022/11/18 02:30:00;;;;;;;69.72;19.75;;;;;;;;;;5018391;28;20037;-39
2022/11/18 02:32:35;;;;;;;57.70;19.73;;;;;;;;;;5015096;28;20398;-40
2022/11/18 02:35:31;;;;;;;57.83;20.48;;;;;;;;;;5016289;28;20095;-40
2022/11/18 02:37:58;;;;;;;57.92;21.83;;;;;;;;;;5013888;28;20112;-40
2022/11/18 02:40:28;;;;;;;60.53;22.20;;;;;;;;;;5010091;28;20034;-41
2022/11/18 02:43:01;;;;;;;78.97;25.33;;;;;;;;;;5017829;28;20030;-40
2022/11/18 02:45:28;;;;;;;59.97;21.38;;;;;;;;;;5017155;28;20081;-41
2022/11/18 02:47:56;;;;;;;74.68;22.83;;;;;;;;;;5019556;28;20042;-40
2022/11/18 02:50:24;;;;;;;61.60;18.52;;;;;;;;;;5014806;28;20045;-39
2022/11/18 02:52:53;;;;;;;49.28;17.55;;;;;;;;;;5018439;28;20038;-40
2022/11/18 02:55:21;;;;;;;41.42;15.20;;;;;;;;;;5017865;28;20052;-40
2022/11/18 02:57:47;;;;;;;72.93;19.60;;;;;;;;;;5016075;28;20185;-40
2022/11/18 03:00:14;;;;;;;52.38;16.10;;;;;;;;;;5019647;28;20160;-41
2022/11/18 03:02:42;;;;;;;46.83;17.13;;;;;;;;;;5018779;28;20508;-40
2022/11/18 03:05:17;;;;;;;71.45;17.67;;;;;;;;;;5014222;28;20478;-40
2022/11/18 03:07:45;;;;;;;43.53;14.73;;;;;;;;;;5015518;28;20045;-41
2022/11/18 03:10:12;;;;;;;53.00;14.55;;;;;;;;;;5017433;28;20065;-40
2022/11/18 03:12:45;;;;;;;50.65;14.15;;;;;;;;;;5013983;28;20041;-40
2022/11/18 03:15:24;;;;;;;43.28;14.68;;;;;;;;;;5018139;28;20049;-43
2022/11/18 03:18:15;;;;;;;57.88;16.52;;;;;;;;;;5017248;28;20060;-40
2022/11/18 03:20:47;;;;;;;38.88;14.30;;;;;;;;;;5012713;28;20050;-40
2022/11/18 03:23:17;;;;;;;39.80;14.97;;;;;;;;;;5015562;28;20049;-40
2022/11/18 03:25:46;;;;;;;52.20;15.48;;;;;;;;;;5016413;28;20056;-40
2022/11/18 03:28:24;;;;;;;56.00;17.02;;;;;;;;;;5016516;28;20045;-40
2022/11/18 03:31:03;;;;;;;57.38;16.15;;;;;;;;;;5012234;28;20046;-40
2022/11/18 03:33:32;;;;;;;84.78;18.52;;;;;;;;;;5012773;28;20506;-40
2022/11/18 03:36:00;;;;;;;40.47;15.05;;;;;;;;;;5015329;28;20042;-41
2022/11/18 03:38:29;;;;;;;37.70;15.30;;;;;;;;;;5018528;28;20042;-46
2022/11/18 03:41:00;;;;;;;58.08;16.23;;;;;;;;;;5019839;28;20051;-40
2022/11/18 03:43:30;;;;;;;43.80;15.60;;;;;;;;;;5014455;28;20061;-39
2022/11/18 03:46:03;;;;;;;61.28;16.75;;;;;;;;;;5015315;28;20096;-40
2022/11/18 03:48:33;;;;;;;52.58;16.02;;;;;;;;;;5016120;28;20046;-40
2022/11/18 03:51:01;;;;;;;38.33;15.55;;;;;;;;;;5015124;28;20125;-40
2022/11/18 03:53:31;;;;;;;56.30;17.02;;;;;;;;;;5017130;28;20046;-40
2022/11/18 03:56:00;;;;;;;43.47;15.52;;;;;;;;;;5020305;28;20037;-40
2022/11/18 03:58:32;;;;;;;57.75;17.58;;;;;;;;;;5013826;28;20038;-40
2022/11/18 04:01:03;;;;;;;49.88;17.17;;;;;;;;;;5015614;28;20108;-40
2022/11/18 04:03:29;;;;;;;55.10;16.27;;;;;;;;;;5018605;28;20116;-40
2022/11/18 04:06:01;;;;;;;54.78;17.02;;;;;;;;;;5016198;28;20042;-40
2022/11/18 04:08:30;;;;;;;38.55;15.55;;;;;;;;;;5013458;28;20564;-40
2022/11/18 04:11:02;;;;;;;44.60;15.50;;;;;;;;;;5019513;28;20458;-40
2022/11/18 04:13:33;;;;;;;59.15;16.65;;;;;;;;;;5009915;28;20030;-40
2022/11/18 04:15:59;;;;;;;38.88;14.10;;;;;;;;;;5015606;28;20092;-40
2022/11/18 04:18:26;;;;;;;50.17;14.93;;;;;;;;;;5013981;28;20049;-40
2022/11/18 04:20:52;;;;;;;48.03;15.85;;;;;;;;;;5018825;28;20049;-40
2022/11/18 04:23:19;;;;;;;61.78;17.83;;;;;;;;;;5015616;28;20042;-40
2022/11/18 04:25:45;;;;;;;51.83;16.50;;;;;;;;;;5017605;28;20045;-40
2022/11/18 04:28:12;;;;;;;56.67;16.58;;;;;;;;;;5014331;28;20064;-40
2022/11/18 04:30:38;;;;;;;51.88;17.05;;;;;;;;;;5016159;28;20042;-40
2022/11/18 04:33:05;;;;;;;54.10;15.85;;;;;;;;;;5019910;28;20405;-39
2022/11/18 04:35:31;;;;;;;56.30;16.15;;;;;;;;;;5014833;28;20049;-41
2022/11/18 04:37:58;;;;;;;47.03;16.80;;;;;;;;;;5016191;28;20034;-40
2022/11/18 04:40:24;;;;;;;42.90;14.93;;;;;;;;;;5016562;28;20406;-40
2022/11/18 04:42:51;;;;;;;61.92;16.50;;;;;;;;;;5017224;28;20037;-41
2022/11/18 04:45:17;;;;;;;42.88;16.05;;;;;;;;;;5020868;28;20097;-40
2022/11/18 04:47:44;;;;;;;55.60;16.05;;;;;;;;;;5019572;28;20053;-45
2022/11/18 04:50:10;;;;;;;42.30;14.23;;;;;;;;;;5022630;28;20042;-40
2022/11/18 04:52:37;;;;;;;37.45;14.35;;;;;;;;;;5016721;28;20049;-41
2022/11/18 04:55:03;;;;;;;40.90;14.88;;;;;;;;;;5016678;28;20558;-40
2022/11/18 04:57:30;;;;;;;61.78;15.10;;;;;;;;;;5018578;28;20069;-40
2022/11/18 04:59:56;;;;;;;37.40;12.13;;;;;;;;;;5015937;28;20038;-40
2022/11/18 05:02:23;;;;;;;36.08;11.90;;;;;;;;;;5020332;28;20049;-41
2022/11/18 05:04:49;;;;;;;44.47;12.40;;;;;;;;;;5015392;28;20046;-39
2022/11/18 05:07:16;;;;;;;35.92;11.25;;;;;;;;;;5017790;28;20209;-40
2022/11/18 05:09:43;;;;;;;47.47;12.38;;;;;;;;;;5020454;28;20041;-40
2022/11/18 05:14:55;;;;;;;27.13;9.48;;;;;;;;;;5019125;28;20044;-40
2022/11/18 05:17:22;;;;;;;45.05;10.82;;;;;;;;;;5018663;28;20073;-40
2022/11/18 05:19:48;;;;;;;53.90;13.40;;;;;;;;;;5020496;28;20038;-40
2022/11/18 05:22:15;;;;;;;34.75;9.95;;;;;;;;;;5016616;28;20045;-40
2022/11/18 05:24:41;;;;;;;48.63;13.07;;;;;;;;;;5017552;28;20047;-40
2022/11/18 05:27:08;;;;;;;62.70;14.27;;;;;;;;;;5016357;28;20482;-40
2022/11/18 05:29:34;;;;;;;50.10;12.05;;;;;;;;;;5018017;28;20103;-40
2022/11/18 05:32:01;;;;;;;33.55;11.38;;;;;;;;;;5019029;28;20432;-39
2022/11/18 05:34:27;;;;;;;45.42;11.25;;;;;;;;;;5018729;28;20095;-40
2022/11/18 05:36:54;;;;;;;32.10;10.05;;;;;;;;;;5015246;28;20041;-40
2022/11/18 05:39:20;;;;;;;33.50;9.30;;;;;;;;;;5019724;28;20387;-40
2022/11/18 05:44:32;;;;;;;40.80;9.13;;;;;;;;;;5015048;28;20058;-40
2022/11/18 05:46:59;;;;;;;39.15;9.88;;;;;;;;;;5017715;28;20042;-40
2022/11/18 05:49:25;;;;;;;34.78;10.05;;;;;;;;;;5018345;28;20038;-41
2022/11/18 05:51:52;;;;;;;42.97;11.02;;;;;;;;;;5018176;28;20042;-41
2022/11/18 05:54:19;;;;;;;43.63;11.05;;;;;;;;;;5018332;28;20037;-40
2022/11/18 05:56:45;;;;;;;41.22;11.35;;;;;;;;;;5018123;28;20402;-40
2022/11/18 05:59:13;;;;;;;48.58;13.32;;;;;;;;;;5020421;28;20123;-39
2022/11/18 06:01:39;;;;;;;52.47;11.63;;;;;;;;;;5015046;28;20448;-40
2022/11/18 06:04:32;;;;;;;34.35;10.27;;;;;;;;;;5017415;28;20054;-40
2022/11/18 06:07:04;;;;;;;59.90;13.25;;;;;;;;;;5015423;28;20050;-40
2022/11/18 06:09:34;;;;;;;58.67;11.88;;;;;;;;;;5017814;28;20141;-40
2022/11/18 06:12:02;;;;;;;34.25;9.95;;;;;;;;;;5017515;28;20060;-40
2022/11/18 06:14:48;;;;;;;40.70;11.00;;;;;;;;;;5013861;28;20049;-39
2022/11/18 06:17:18;;;;;;;33.08;9.60;;;;;;;;;;5012898;28;20063;-40
2022/11/18 06:19:45;;;;;;;69.35;15.02;;;;;;;;;;5015425;28;20037;-40
2022/11/18 06:22:12;;;;;;;41.95;11.55;;;;;;;;;;5015928;28;20060;-40
2022/11/18 06:24:39;;;;;;;57.58;13.00;;;;;;;;;;5011297;28;20438;-40
2022/11/18 06:27:05;;;;;;;39.80;11.60;;;;;;;;;;5016539;28;20049;-40
2022/11/18 06:29:32;;;;;;;42.72;10.45;;;;;;;;;;5009300;28;20073;-39
2022/11/18 06:31:58;;;;;;;33.47;10.63;;;;;;;;;;5007469;28;20053;-40
2022/11/18 06:34:25;;;;;;;54.30;11.77;;;;;;;;;;5006889;28;20057;-40
2022/11/18 06:36:51;;;;;;;55.00;12.25;;;;;;;;;;5010503;28;20056;-40
2022/11/18 06:39:18;;;;;;;29.08;9.85;;;;;;;;;;5017176;28;20053;-40
2022/11/18 06:41:45;;;;;;;60.33;12.88;;;;;;;;;;5012978;28;20145;-40
2022/11/18 06:44:11;;;;;;;34.88;10.57;;;;;;;;;;5017804;28;20087;-40
2022/11/18 06:46:56;;;;;;;50.03;12.05;;;;;;;;;;5013410;28;20487;-40
2022/11/18 06:49:24;;;;;;;38.28;10.35;;;;;;;;;;5014670;28;20048;-40
2022/11/18 06:51:50;;;;;;;44.63;11.15;;;;;;;;;;5016835;28;20048;-40
2022/11/18 06:54:17;;;;;;;50.22;11.73;;;;;;;;;;5020171;28;20525;-40
2022/11/18 06:56:43;;;;;;;39.33;10.98;;;;;;;;;;5015788;28;20128;-41
2022/11/18 06:59:10;;;;;;;37.83;11.02;;;;;;;;;;5018161;28;20042;-39
2022/11/18 07:01:37;;;;;;;47.92;11.70;;;;;;;;;;5013013;28;20042;-40
2022/11/18 07:04:04;;;;;;;59.70;17.67;;;;;;;;;;5018306;28;20048;-40
2022/11/18 07:06:32;;;;;;;37.03;11.32;;;;;;;;;;5018475;28;20494;-39
2022/11/18 07:08:59;;;;;;;51.50;11.00;;;;;;;;;;5022967;28;20080;-40
2022/11/18 07:11:26;;;;;;;34.13;10.38;;;;;;;;;;5012745;28;20038;-40
2022/11/18 07:13:53;;;;;;;46.47;11.65;;;;;;;;;;5017459;28;20096;-40
2022/11/18 07:16:23;;;;;;;67.57;13.13;;;;;;;;;;5016732;28;20033;-40
2022/11/18 07:18:50;;;;;;;49.80;10.88;;;;;;;;;;5017621;28;20041;-40
2022/11/18 07:21:21;;;;;;;54.42;11.98;;;;;;;;;;5019921;28;20045;-40
2022/11/18 07:23:47;;;;;;;53.30;12.95;;;;;;;;;;5018583;28;20053;-40
2022/11/18 07:26:14;;;;;;;71.93;12.85;;;;;;;;;;5016548;28;20038;-40
2022/11/18 07:28:41;;;;;;;59.33;11.63;;;;;;;;;;5016948;28;20428;-40
2022/11/18 07:31:12;;;;;;;67.57;12.85;;;;;;;;;;5016740;28;20046;-39
2022/11/18 07:33:39;;;;;;;67.47;12.68;;;;;;;;;;5014462;28;20415;-40
2022/11/18 07:36:13;;;;;;;29.67;8.23;;;;;;;;;;5018588;28;20038;-40
2022/11/18 07:38:40;;;;;;;62.30;11.73;;;;;;;;;;5014982;28;20060;-40
2022/11/18 07:41:13;;;;;;;36.10;9.77;;;;;;;;;;5012228;28;20073;-39
2022/11/18 07:43:40;;;;;;;67.05;13.32;;;;;;;;;;5013378;28;20042;-40
2022/11/18 07:46:27;;;;;;;57.42;12.32;;;;;;;;;;5007593;28;20057;-39
2022/11/18 07:48:55;;;;;;;54.00;10.82;;;;;;;;;;5007288;28;20584;-40
2022/11/18 07:51:26;;;;;;;64.63;14.38;;;;;;;;;;5009816;28;20033;-40
2022/11/18 07:53:52;;;;;;;66.20;11.30;;;;;;;;;;5007320;28;20057;-40
2022/11/18 07:56:19;;;;;;;82.72;13.27;;;;;;;;;;5007300;28;20034;-39
2022/11/18 07:58:46;;;;;;;35.22;8.82;;;;;;;;;;5008659;28;20494;-40
2022/11/18 08:01:14;;;;;;;50.45;9.27;;;;;;;;;;5011396;28;20399;-39
2022/11/18 08:03:41;;;;;;;57.70;11.63;;;;;;;;;;5012104;28;20045;-39
2022/11/18 08:06:08;;;;;;;43.50;9.68;;;;;;;;;;5007240;28;20048;-39
2022/11/18 08:08:35;;;;;;;39.30;10.60;;;;;;;;;;5012198;28;20075;-39
2022/11/18 08:11:03;;;;;;;32.15;7.43;;;;;;;;;;5009651;28;20045;-39
2022/11/18 08:13:29;;;;;;;28.92;6.22;;;;;;;;;;5017441;28;20050;-40
2022/11/18 08:15:55;;;;;;;55.15;8.60;;;;;;;;;;5014923;28;20041;-39
2022/11/18 08:18:23;;;;;;;37.72;8.02;;;;;;;;;;5019075;28;20072;-39
2022/11/18 08:20:49;;;;;;;52.67;9.55;;;;;;;;;;5013524;28;20038;-39
2022/11/18 08:23:16;;;;;;;56.38;9.45;;;;;;;;;;5008051;28;20045;-40
2022/11/18 08:25:43;;;;;;;48.42;8.73;;;;;;;;;;5009662;28;20067;-39
2022/11/18 08:28:11;;;;;;;79.63;11.95;;;;;;;;;;5005984;28;20041;-40
2022/11/18 08:30:37;;;;;;;66.38;12.32;;;;;;;;;;5013174;28;20065;-40
2022/11/18 08:33:04;;;;;;;31.05;8.43;;;;;;;;;;5022307;28;20045;-40
2022/11/18 08:35:31;;;;;;;53.67;11.30;;;;;;;;;;5015892;28;20048;-38
2022/11/18 08:37:58;;;;;;;50.40;8.57;;;;;;;;;;5019450;28;20092;-39
2022/11/18 08:40:25;;;;;;;32.35;7.63;;;;;;;;;;5018944;28;20398;-39
2022/11/18 08:42:51;;;;;;;55.05;9.95;;;;;;;;;;5013325;28;20054;-40
2022/11/18 08:45:18;;;;;;;47.70;8.63;;;;;;;;;;5020509;28;20440;-39
2022/11/18 08:47:44;;;;;;;54.65;8.88;;;;;;;;;;5016196;28;20037;-41
2022/11/18 08:50:11;;;;;;;50.40;9.75;;;;;;;;;;5014614;28;20083;-39
2022/11/18 08:52:37;;;;;;;41.70;8.05;;;;;;;;;;5011174;28;20038;-39
2022/11/18 08:55:04;;;;;;;37.10;7.25;;;;;;;;;;5014814;28;20041;-42
2022/11/18 08:57:31;;;;;;;59.35;9.75;;;;;;;;;;5015341;28;20045;-39
2022/11/18 08:59:57;;;;;;;48.70;8.88;;;;;;;;;;5018329;28;20491;-39
2022/11/18 09:02:24;;;;;;;28.75;6.97;;;;;;;;;;5018885;28;20405;-38
2022/11/18 09:04:51;;;;;;;37.53;7.97;;;;;;;;;;5008824;28;20048;-39
2022/11/18 09:07:18;;;;;;;60.03;10.88;;;;;;;;;;5017370;28;20033;-39
2022/11/18 09:09:45;;;;;;;46.25;8.32;;;;;;;;;;5020053;28;20136;-38
2022/11/18 09:12:13;;;;;;;39.28;7.97;;;;;;;;;;5022307;28;20041;-39
2022/11/18 09:14:44;;;;;;;39.95;7.38;;;;;;;;;;5015861;28;20042;-39
2022/11/18 09:17:30;;;;;;;44.10;9.60;;;;;;;;;;5017391;28;20057;-38
2022/11/18 09:19:57;;;;;;;47.75;8.35;;;;;;;;;;5014653;28;20088;-39
2022/11/18 09:22:23;;;;;;;39.78;8.15;;;;;;;;;;5019828;28;20136;-39
2022/11/18 09:24:50;;;;;;;53.88;10.20;;;;;;;;;;5019218;28;20559;-39
2022/11/18 09:27:17;;;;;;;44.65;8.73;;;;;;;;;;5021866;28;20505;-39
2022/11/18 09:29:43;;;;;;;38.17;8.50;;;;;;;;;;5014429;28;20046;-39
2022/11/18 09:32:10;;;;;;;54.95;10.25;;;;;;;;;;5013596;28;20491;-38
2022/11/18 09:34:37;;;;;;;38.70;9.73;;;;;;;;;;5012030;28;20562;-37
2022/11/18 09:37:05;;;;;;;31.33;9.02;;;;;;;;;;5009750;28;20073;-38
2022/11/18 09:39:38;;;;;;;35.85;9.23;;;;;;;;;;5012163;28;20140;-39
2022/11/18 09:42:23;;;;;;;59.75;12.60;;;;;;;;;;5008339;28;20060;-38
2022/11/18 09:44:56;;;;;;;29.02;7.82;;;;;;;;;;5009701;28;20046;-38
2022/11/18 09:47:23;;;;;;;;;;;;;;;;;;5010354;28;20100;-39
2022/11/18 09:49:50;;;;;;;36.55;7.40;;;;;;;;;;5011527;28;19922;-38
2022/11/18 09:52:28;;;;;;;44.17;10.20;;;;;;;;;;5010670;28;20033;-38
2022/11/18 09:55:03;;;;;;;30.23;7.82;;;;;;;;;;5012511;28;20046;-37
2022/11/18 09:57:46;;;;;;;30.83;8.63;;;;;;;;;;5011371;28;20038;-38
2022/11/18 10:00:17;;;;;;;56.08;9.52;;;;;;;;;;5010254;28;20042;-37
2022/11/18 10:02:47;;;;;;;44.03;7.43;;;;;;;;;;5010979;28;20038;-38
2022/11/18 10:05:16;;;;;;;49.33;7.78;;;;;;;;;;5018455;28;20125;-38
2022/11/18 10:07:48;;;;;;;51.55;8.30;;;;;;;;;;5011190;28;20128;-37
2022/11/18 10:10:18;;;;;;;50.35;8.95;;;;;;;;;;5012957;28;20034;-38
2022/11/18 10:12:48;;;;;;;52.80;8.90;;;;;;;;;;5010852;28;20097;-38
2022/11/18 10:15:15;;;;;;;36.80;8.77;;;;;;;;;;5009321;28;20084;-40
2022/11/18 10:18:20;;;;;;;52.05;11.23;;;;;;;;;;5011164;28;20483;-38
2022/11/18 10:21:16;;;;;;;45.83;8.60;;;;;;;;;;5007861;28;20073;-38
2022/11/18 10:23:53;;;;;;;43.00;8.02;;;;;;;;;;5006106;28;20127;-38
2022/11/18 10:26:36;;;;;;;48.53;9.05;;;;;;;;;;5008558;28;20050;-38
2022/11/18 10:29:03;;;;;;;55.83;8.75;;;;;;;;;;5005355;28;20088;-38
2022/11/18 10:31:29;;;;;;;59.95;9.82;;;;;;;;;;5007745;28;20142;-38
2022/11/18 10:33:59;;;;;;;36.28;7.47;;;;;;;;;;5007466;28;20490;-41
2022/11/18 10:36:27;;;;;;;33.58;6.90;;;;;;;;;;5007037;28;20052;-40
2022/11/18 10:39:13;;;;;;;53.13;9.27;;;;;;;;;;5006381;28;20200;-41
2022/11/18 10:41:42;;;;;;;49.60;10.65;;;;;;;;;;5011030;28;20087;-42
2022/11/18 10:44:44;;;;;;;56.75;11.23;;;;;;;;;;5005327;28;20049;-42
2022/11/18 10:47:15;;;;;;;44.92;8.98;;;;;;;;;;4952119;28;20058;-39
2022/11/18 10:49:41;;;;;;;56.67;9.43;;;;;;;;;;4943839;28;20081;-37
2022/11/18 10:52:10;;;;;;;34.90;7.93;;;;;;;;;;4926796;28;20058;-40
2022/11/18 10:54:36;;;;;;;74.93;10.45;;;;;;;;;;4923266;29;20051;-40
2022/11/18 10:57:12;;;;;;;23.60;6.35;;;;;;;;;;4928683;29;20466;-40
2022/11/18 10:59:40;;;;;;;38.47;7.95;;;;;;;;;;4924574;29;20617;-39
2022/11/18 11:02:25;;;;;;;51.70;8.20;;;;;;;;;;4925259;29;20062;-42
2022/11/18 11:04:52;;;;;;;44.20;7.60;;;;;;;;;;4909296;29;20058;-38
2022/11/18 11:07:24;;;;;;;47.17;8.60;;;;;;;;;;4921380;29;20047;-39
2022/11/18 11:09:59;;;;;;;43.25;7.95;;;;;;;;;;4913005;28;20698;-40
2022/11/18 11:12:27;;;;;;;33.67;7.55;;;;;;;;;;4922613;29;20517;-39
2022/11/18 11:14:55;;;;;;;46.88;8.57;;;;;;;;;;4923236;29;20126;-42
2022/11/18 11:17:22;;;;;;;40.20;6.60;;;;;;;;;;4911301;29;20071;-39
2022/11/18 11:19:49;;;;;;;38.60;6.30;;;;;;;;;;4924033;29;20094;-38
2022/11/18 11:22:16;;;;;;;45.50;6.50;;;;;;;;;;5005747;28;20050;-40
2022/11/18 11:24:42;;;;;;;42.97;6.78;;;;;;;;;;5017004;28;20052;-46
2022/11/18 11:27:12;;;;;;;35.47;6.90;;;;;;;;;;5015182;28;20065;-38
2022/11/18 11:30:08;;;;;;;54.72;8.80;;;;;;;;;;5016548;28;20046;-39
2022/11/18 11:32:35;;;;;;;56.40;11.20;;;;;;;;;;5010021;28;20078;-41
2022/11/18 11:35:01;;;;;;;25.15;7.10;;;;;;;;;;5017791;28;20404;-38
2022/11/18 11:37:45;;;;;;;24.48;6.93;;;;;;;;;;5016411;28;20041;-40
2022/11/18 11:40:12;;;;;;;36.17;6.47;;;;;;;;;;4999422;28;20046;-40
2022/11/18 11:42:41;;;;;;;58.05;8.90;;;;;;;;;;5015874;28;20057;-40
2022/11/18 11:45:43;;;;;;;48.85;8.90;;;;;;;;;;5010034;28;20049;-38
2022/11/18 11:48:20;;;;;;;31.13;7.45;;;;;;;;;;5012242;28;20061;-40
2022/11/18 11:50:54;;;;;;;50.67;13.95;;;;;;;;;;5011986;28;20101;-40
2022/11/18 11:53:58;;;;;;;37.15;6.75;;;;;;;;;;5012022;28;20037;-39
2022/11/18 11:56:37;;;;;;;20.33;5.25;;;;;;;;;;5014743;28;20549;-40
2022/11/18 11:59:04;;;;;;;51.00;11.63;;;;;;;;;;5016551;28;20077;-39
2022/11/18 12:01:40;;;;;;;38.88;7.10;;;;;;;;;;5013519;28;20053;-40
2022/11/18 12:04:09;;;;;;;43.78;11.60;;;;;;;;;;5016616;28;20053;-39
2022/11/18 12:06:36;;;;;;;36.72;7.13;;;;;;;;;;5018950;28;20633;-38
2022/11/18 12:09:08;;;;;;;25.73;5.72;;;;;;;;;;5017914;28;20056;-40
2022/11/18 12:11:34;;;;;;;59.65;9.95;;;;;;;;;;5017098;28;20053;-38
2022/11/18 12:14:04;;;;;;;41.85;7.15;;;;;;;;;;5019243;28;20049;-38
2022/11/18 12:16:36;;;;;;;28.33;6.85;;;;;;;;;;5013742;28;20404;-38
2022/11/18 12:19:15;;;;;;;41.30;6.97;;;;;;;;;;5018771;28;20045;-41
2022/11/18 12:21:43;;;;;;;52.30;7.93;;;;;;;;;;5020387;28;20415;-39
2022/11/18 12:24:16;;;;;;;41.97;7.38;;;;;;;;;;5023624;28;20068;-39
2022/11/18 12:26:43;;;;;;;55.58;9.88;;;;;;;;;;5017629;28;20129;-39
2022/11/18 12:29:19;;;;;;;41.08;8.55;;;;;;;;;;5008592;28;20042;-38
2022/11/18 12:31:47;;;;;;;49.95;7.80;;;;;;;;;;5008705;28;20451;-40
2022/11/18 12:34:37;;;;;;;43.92;7.68;;;;;;;;;;5020566;28;20041;-39
2022/11/18 12:37:22;;;;;;;53.85;8.23;;;;;;;;;;5022527;28;20107;-39
2022/11/18 12:39:57;;;;;;;57.28;8.75;;;;;;;;;;5017708;28;20140;-41
2022/11/18 12:45:39;;;;;;;40.78;8.30;;;;;;;;;;5017221;28;20087;-39
2022/11/18 12:48:21;;;;;;;60.05;11.60;;;;;;;;;;5018370;28;20046;-38
2022/11/18 12:50:56;;;;;;;65.35;12.13;;;;;;;;;;5016234;28;20046;-38
2022/11/18 12:53:40;;;;;;;28.05;6.38;;;;;;;;;;5019862;28;20042;-38
2022/11/18 12:56:09;;;;;;;38.13;7.93;;;;;;;;;;5016388;28;20049;-39
2022/11/18 12:58:36;;;;;;;25.20;6.63;;;;;;;;;;5019286;28;20403;-38
2022/11/18 13:01:07;;;;;;;40.70;7.20;;;;;;;;;;5015827;28;20065;-40
2022/11/18 13:03:34;;;;;;;37.72;7.53;;;;;;;;;;5004663;28;20050;-39
2022/11/18 13:06:04;;;;;;;44.35;7.75;;;;;;;;;;5016423;28;20066;-39
2022/11/18 13:08:31;;;;;;;25.08;6.45;;;;;;;;;;5013478;28;20052;-39
2022/11/18 13:17:50;;;;;;;41.58;8.00;;;;;;;;;;5014027;28;20116;-39
2022/11/18 13:19:36;;;;;;;49.30;8.35;;;;;;;;;;5030099;28;20066;-39
2022/11/18 13:24:49;;;;;;;50.92;9.57;;;;;;;;;;5031972;28;20061;-39
2022/11/18 13:27:38;;;;;;;31.80;7.10;;;;;;;;;;5033597;28;20045;-39
2022/11/18 13:30:09;;;;;;;38.83;7.95;;;;;;;;;;5026654;28;20057;-40
2022/11/18 13:32:41;;;;;;;21.05;5.60;;;;;;;;;;5031554;28;20041;-39
2022/11/18 13:35:14;;;;;;;63.22;9.13;;;;;;;;;;5027683;28;20132;-40
2022/11/18 13:37:40;;;;;;;;;;;;;;;;;;5029800;28;20060;-40
2022/11/18 13:40:25;;;;;;;62.05;10.85;;;;;;;;;;5030358;28;19921;-39
2022/11/18 13:42:52;;;;;;;44.60;9.15;;;;;;;;;;5033111;28;20518;-39
2022/11/18 13:45:20;;;;;;;39.63;8.70;;;;;;;;;;4998903;28;1092282;-39
2022/11/18 13:47:49;;;;;;;34.17;8.70;;;;;;;;;;5034591;28;20057;-39
2022/11/18 13:50:21;;;;;;;50.78;13.35;;;;;;;;;;5033633;28;20529;-41
2022/11/18 13:52:59;;;;;;;58.08;13.10;;;;;;;;;;5036433;28;20045;-40
2022/11/18 13:55:27;;;;;;;36.22;10.50;;;;;;;;;;5028326;28;20116;-40
2022/11/18 13:57:59;;;;;;;36.35;10.52;;;;;;;;;;5018030;28;20073;-39
2022/11/18 14:00:27;;;;;;;36.20;10.70;;;;;;;;;;5019742;28;20045;-40
2022/11/18 14:02:58;;;;;;;46.08;11.43;;;;;;;;;;5017837;28;20049;-39
2022/11/18 14:05:25;;;;;;;46.95;11.23;;;;;;;;;;5018966;28;20071;-39
2022/11/18 14:07:59;;;;;;;34.70;10.38;;;;;;;;;;5014697;28;20048;-40
2022/11/18 14:10:52;;;;;;;33.83;11.93;;;;;;;;;;5018105;28;20037;-39
2022/11/18 14:13:25;;;;;;;38.27;12.27;;;;;;;;;;5013966;28;20095;-39
2022/11/18 14:15:52;;;;;;;82.80;22.13;;;;;;;;;;5015315;28;20075;-39
2022/11/18 14:18:27;;;;;;;84.32;22.27;;;;;;;;;;5020510;28;20387;-39
2022/11/18 14:20:54;;;;;;;48.67;12.30;;;;;;;;;;5014288;28;20038;-39
2022/11/18 14:23:30;;;;;;;55.53;13.73;;;;;;;;;;5021036;28;20049;-39
2022/11/18 14:25:58;;;;;;;42.42;15.15;;;;;;;;;;5019516;28;20057;-40
2022/11/18 14:28:29;;;;;;;34.70;12.52;;;;;;;;;;5014908;28;20038;-39
2022/11/18 14:31:16;;;;;;;47.25;14.50;;;;;;;;;;5013785;28;20058;-41
2022/11/18 14:34:02;;;;;;;63.17;20.33;;;;;;;;;;5014228;28;20077;-40
2022/11/18 14:36:28;;;;;;;51.72;15.65;;;;;;;;;;5017170;28;20057;-40
2022/11/18 14:38:55;;;;;;;54.22;14.85;;;;;;;;;;5017515;28;20121;-40
2022/11/18 14:41:48;;;;;;;57.92;16.50;;;;;;;;;;5015567;28;20525;-40
2022/11/18 14:44:15;;;;;;;45.20;12.43;;;;;;;;;;5015346;28;20483;-40
2022/11/18 14:46:43;;;;;;;49.53;16.15;;;;;;;;;;5017365;28;20041;-39
2022/11/18 14:49:15;;;;;;;39.30;13.25;;;;;;;;;;5016959;28;20052;-40
2022/11/18 14:51:43;;;;;;;72.40;15.63;;;;;;;;;;5018780;28;20059;-39
2022/11/18 14:54:16;;;;;;;54.88;12.73;;;;;;;;;;5019527;28;20378;-39
2022/11/18 14:56:53;;;;;;;102.82;29.77;;;;;;;;;;5017579;28;20052;-39
2022/11/18 14:59:20;;;;;;;100.45;34.42;;;;;;;;;;5014967;28;20057;-40
2022/11/18 15:01:46;;;;;;;59.58;14.48;;;;;;;;;;5017887;28;20037;-40
2022/11/18 15:04:14;;;;;;;58.60;17.20;;;;;;;;;;5016887;28;20034;-40